sensor_id;sensor_type;location;lat;lon;timestamp;P1;durP1;ratioP1;P2;durP2;ratioP2
64653;SDS011;51065;48.884;12.598;2023-08-24T00:00:07;7.55;;;4.03;;
64653;SDS011;51065;48.884;12.598;2023-08-24T00:02:33;7.65;;;3.90;;
64653;SDS011;51065;48.884;12.598;2023-08-24T00:04:58;6.30;;;3.80;;
64653;SDS011;51065;48.884;12.598;2023-08-24T00:07:25;6.15;;;3.55;;
64653;SDS011;51065;48.884;12.598;2023-08-24T00:09:52;5.35;;;3.42;;
64653;SDS011;51065;48.884;12.598;2023-08-24T00:12:18;5.05;;;3.45;;
64653;SDS011;51065;48.884;12.598;2023-08-24T00:14:43;7.38;;;3.83;;
64653;SDS011;51065;48.884;12.598;2023-08-24T00:17:09;6.97;;;3.83;;
64653;SDS011;51065;48.884;12.598;2023-08-24T00:19:35;6.40;;;3.80;;
64653;SDS011;51065;48.884;12.598;2023-08-24T00:22:01;10.27;;;3.95;;
64653;SDS011;51065;48.884;12.598;2023-08-24T00:24:26;5.88;;;3.67;;
64653;SDS011;51065;48.884;12.598;2023-08-24T00:26:52;10.45;;;4.15;;
64653;SDS011;51065;48.884;12.598;2023-08-24T00:29:17;8.23;;;4.28;;
64653;SDS011;51065;48.884;12.598;2023-08-24T00:31:43;7.03;;;3.90;;
64653;SDS011;51065;48.884;12.598;2023-08-24T00:34:09;6.70;;;4.00;;
64653;SDS011;51065;48.884;12.598;2023-08-24T00:36:34;10.18;;;4.35;;
64653;SDS011;51065;48.884;12.598;2023-08-24T00:39:00;8.57;;;4.35;;
64653;SDS011;51065;48.884;12.598;2023-08-24T00:41:25;9.05;;;4.07;;
64653;SDS011;51065;48.884;12.598;2023-08-24T00:43:51;9.15;;;4.50;;
64653;SDS011;51065;48.884;12.598;2023-08-24T00:46:17;8.32;;;4.47;;
64653;SDS011;51065;48.884;12.598;2023-08-24T00:48:43;7.75;;;4.25;;
64653;SDS011;51065;48.884;12.598;2023-08-24T00:51:09;6.82;;;4.40;;
64653;SDS011;51065;48.884;12.598;2023-08-24T00:53:35;8.13;;;4.00;;
64653;SDS011;51065;48.884;12.598;2023-08-24T00:56:02;7.90;;;3.78;;
64653;SDS011;51065;48.884;12.598;2023-08-24T00:58:28;7.25;;;4.00;;
64653;SDS011;51065;48.884;12.598;2023-08-24T01:00:56;6.28;;;3.83;;
64653;SDS011;51065;48.884;12.598;2023-08-24T01:03:22;7.50;;;3.97;;
64653;SDS011;51065;48.884;12.598;2023-08-24T01:05:51;9.23;;;3.75;;
64653;SDS011;51065;48.884;12.598;2023-08-24T01:08:17;11.40;;;4.70;;
64653;SDS011;51065;48.884;12.598;2023-08-24T01:10:55;6.65;;;4.20;;
64653;SDS011;51065;48.884;12.598;2023-08-24T01:16:27;7.40;;;4.20;;
64653;SDS011;51065;48.884;12.598;2023-08-24T01:18:58;9.65;;;3.85;;
64653;SDS011;51065;48.884;12.598;2023-08-24T01:21:27;9.50;;;4.07;;
64653;SDS011;51065;48.884;12.598;2023-08-24T01:24:01;7.00;;;4.43;;
64653;SDS011;51065;48.884;12.598;2023-08-24T01:26:39;7.05;;;4.32;;
64653;SDS011;51065;48.884;12.598;2023-08-24T01:29:06;10.52;;;4.57;;
64653;SDS011;51065;48.884;12.598;2023-08-24T01:31:32;7.55;;;4.13;;
64653;SDS011;51065;48.884;12.598;2023-08-24T01:33:58;6.55;;;3.85;;
64653;SDS011;51065;48.884;12.598;2023-08-24T01:36:25;6.57;;;4.30;;
64653;SDS011;51065;48.884;12.598;2023-08-24T01:39:02;8.07;;;4.07;;
64653;SDS011;51065;48.884;12.598;2023-08-24T01:41:39;7.40;;;4.40;;
64653;SDS011;51065;48.884;12.598;2023-08-24T01:44:08;7.97;;;4.53;;
64653;SDS011;51065;48.884;12.598;2023-08-24T01:46:37;8.90;;;4.80;;
64653;SDS011;51065;48.884;12.598;2023-08-24T01:49:04;8.65;;;4.97;;
64653;SDS011;51065;48.884;12.598;2023-08-24T01:51:32;9.07;;;4.47;;
64653;SDS011;51065;48.884;12.598;2023-08-24T01:53:59;12.38;;;5.40;;
64653;SDS011;51065;48.884;12.598;2023-08-24T01:56:25;8.55;;;4.50;;
64653;SDS011;51065;48.884;12.598;2023-08-24T01:58:51;7.30;;;4.18;;
64653;SDS011;51065;48.884;12.598;2023-08-24T02:01:17;8.30;;;4.53;;
64653;SDS011;51065;48.884;12.598;2023-08-24T02:03:42;10.10;;;4.88;;
64653;SDS011;51065;48.884;12.598;2023-08-24T02:06:08;10.02;;;4.70;;
64653;SDS011;51065;48.884;12.598;2023-08-24T02:08:34;7.10;;;4.32;;
64653;SDS011;51065;48.884;12.598;2023-08-24T02:10:59;10.82;;;4.90;;
64653;SDS011;51065;48.884;12.598;2023-08-24T02:13:25;8.45;;;4.75;;
64653;SDS011;51065;48.884;12.598;2023-08-24T02:16:00;8.52;;;4.55;;
64653;SDS011;51065;48.884;12.598;2023-08-24T02:18:29;10.48;;;4.50;;
64653;SDS011;51065;48.884;12.598;2023-08-24T02:20:55;8.10;;;4.53;;
64653;SDS011;51065;48.884;12.598;2023-08-24T02:23:20;8.80;;;4.68;;
64653;SDS011;51065;48.884;12.598;2023-08-24T02:25:46;9.23;;;4.80;;
64653;SDS011;51065;48.884;12.598;2023-08-24T02:28:11;9.65;;;5.03;;
64653;SDS011;51065;48.884;12.598;2023-08-24T02:30:37;8.20;;;4.47;;
64653;SDS011;51065;48.884;12.598;2023-08-24T02:33:04;10.23;;;4.82;;
64653;SDS011;51065;48.884;12.598;2023-08-24T02:35:29;7.70;;;4.57;;
64653;SDS011;51065;48.884;12.598;2023-08-24T02:37:55;7.63;;;4.50;;
64653;SDS011;51065;48.884;12.598;2023-08-24T02:40:22;8.35;;;4.68;;
64653;SDS011;51065;48.884;12.598;2023-08-24T02:42:48;9.57;;;4.55;;
64653;SDS011;51065;48.884;12.598;2023-08-24T02:45:13;10.10;;;5.05;;
64653;SDS011;51065;48.884;12.598;2023-08-24T02:47:39;10.77;;;5.50;;
64653;SDS011;51065;48.884;12.598;2023-08-24T02:50:05;10.55;;;5.70;;
64653;SDS011;51065;48.884;12.598;2023-08-24T02:52:31;11.20;;;5.80;;
64653;SDS011;51065;48.884;12.598;2023-08-24T02:54:57;10.55;;;5.38;;
64653;SDS011;51065;48.884;12.598;2023-08-24T02:57:23;8.88;;;5.00;;
64653;SDS011;51065;48.884;12.598;2023-08-24T02:59:49;9.90;;;5.35;;
64653;SDS011;51065;48.884;12.598;2023-08-24T03:02:14;12.02;;;5.32;;
64653;SDS011;51065;48.884;12.598;2023-08-24T03:04:40;10.40;;;5.82;;
64653;SDS011;51065;48.884;12.598;2023-08-24T03:07:06;10.57;;;5.30;;
64653;SDS011;51065;48.884;12.598;2023-08-24T03:09:34;9.55;;;5.47;;
64653;SDS011;51065;48.884;12.598;2023-08-24T03:12:00;9.40;;;5.30;;
64653;SDS011;51065;48.884;12.598;2023-08-24T03:14:25;10.23;;;5.03;;
64653;SDS011;51065;48.884;12.598;2023-08-24T03:16:51;9.93;;;4.90;;
64653;SDS011;51065;48.884;12.598;2023-08-24T03:19:16;8.68;;;4.88;;
64653;SDS011;51065;48.884;12.598;2023-08-24T03:21:43;8.18;;;4.90;;
64653;SDS011;51065;48.884;12.598;2023-08-24T03:24:09;8.68;;;5.10;;
64653;SDS011;51065;48.884;12.598;2023-08-24T03:26:34;10.57;;;5.00;;
64653;SDS011;51065;48.884;12.598;2023-08-24T03:29:00;10.10;;;4.95;;
64653;SDS011;51065;48.884;12.598;2023-08-24T03:31:25;10.50;;;5.22;;
64653;SDS011;51065;48.884;12.598;2023-08-24T03:33:51;8.55;;;5.18;;
64653;SDS011;51065;48.884;12.598;2023-08-24T03:36:17;10.95;;;5.43;;
64653;SDS011;51065;48.884;12.598;2023-08-24T03:38:43;9.18;;;5.00;;
64653;SDS011;51065;48.884;12.598;2023-08-24T03:41:10;9.95;;;4.97;;
64653;SDS011;51065;48.884;12.598;2023-08-24T03:43:35;10.00;;;4.95;;
64653;SDS011;51065;48.884;12.598;2023-08-24T03:46:02;10.27;;;5.22;;
64653;SDS011;51065;48.884;12.598;2023-08-24T03:48:29;8.95;;;5.35;;
64653;SDS011;51065;48.884;12.598;2023-08-24T03:50:55;8.93;;;5.03;;
64653;SDS011;51065;48.884;12.598;2023-08-24T03:53:24;10.40;;;5.15;;
64653;SDS011;51065;48.884;12.598;2023-08-24T03:55:50;10.43;;;5.28;;
64653;SDS011;51065;48.884;12.598;2023-08-24T03:58:17;10.20;;;5.65;;
64653;SDS011;51065;48.884;12.598;2023-08-24T04:00:43;11.38;;;6.28;;
64653;SDS011;51065;48.884;12.598;2023-08-24T04:03:09;12.52;;;5.63;;
64653;SDS011;51065;48.884;12.598;2023-08-24T04:05:36;10.20;;;5.15;;
64653;SDS011;51065;48.884;12.598;2023-08-24T04:08:01;10.23;;;5.45;;
64653;SDS011;51065;48.884;12.598;2023-08-24T04:10:28;12.35;;;6.05;;
64653;SDS011;51065;48.884;12.598;2023-08-24T04:12:55;10.90;;;5.85;;
64653;SDS011;51065;48.884;12.598;2023-08-24T04:15:20;10.93;;;5.70;;
64653;SDS011;51065;48.884;12.598;2023-08-24T04:17:47;10.63;;;6.10;;
64653;SDS011;51065;48.884;12.598;2023-08-24T04:20:13;15.32;;;6.72;;
64653;SDS011;51065;48.884;12.598;2023-08-24T04:22:42;10.70;;;5.82;;
64653;SDS011;51065;48.884;12.598;2023-08-24T04:25:08;10.07;;;5.40;;
64653;SDS011;51065;48.884;12.598;2023-08-24T04:27:34;9.88;;;5.50;;
64653;SDS011;51065;48.884;12.598;2023-08-24T04:30:00;10.27;;;6.07;;
64653;SDS011;51065;48.884;12.598;2023-08-24T04:32:26;11.15;;;5.75;;
64653;SDS011;51065;48.884;12.598;2023-08-24T04:34:52;13.00;;;6.20;;
64653;SDS011;51065;48.884;12.598;2023-08-24T04:37:18;9.25;;;5.28;;
64653;SDS011;51065;48.884;12.598;2023-08-24T04:39:44;9.00;;;5.30;;
64653;SDS011;51065;48.884;12.598;2023-08-24T04:42:09;8.65;;;4.78;;
64653;SDS011;51065;48.884;12.598;2023-08-24T04:44:35;10.55;;;5.25;;
64653;SDS011;51065;48.884;12.598;2023-08-24T04:47:00;12.40;;;6.38;;
64653;SDS011;51065;48.884;12.598;2023-08-24T04:49:26;12.55;;;5.95;;
64653;SDS011;51065;48.884;12.598;2023-08-24T04:51:53;9.90;;;5.55;;
64653;SDS011;51065;48.884;12.598;2023-08-24T04:54:19;9.75;;;5.65;;
64653;SDS011;51065;48.884;12.598;2023-08-24T04:56:44;8.25;;;4.85;;
64653;SDS011;51065;48.884;12.598;2023-08-24T04:59:10;11.77;;;5.68;;
64653;SDS011;51065;48.884;12.598;2023-08-24T05:01:35;11.45;;;5.30;;
64653;SDS011;51065;48.884;12.598;2023-08-24T05:04:02;10.82;;;5.60;;
64653;SDS011;51065;48.884;12.598;2023-08-24T05:06:27;11.85;;;5.35;;
64653;SDS011;51065;48.884;12.598;2023-08-24T05:08:53;8.60;;;5.07;;
64653;SDS011;51065;48.884;12.598;2023-08-24T05:11:20;11.13;;;5.55;;
64653;SDS011;51065;48.884;12.598;2023-08-24T05:13:49;11.48;;;5.32;;
64653;SDS011;51065;48.884;12.598;2023-08-24T05:16:14;9.98;;;5.10;;
64653;SDS011;51065;48.884;12.598;2023-08-24T05:18:40;9.77;;;5.30;;
64653;SDS011;51065;48.884;12.598;2023-08-24T05:21:06;9.93;;;5.40;;
64653;SDS011;51065;48.884;12.598;2023-08-24T05:23:32;11.88;;;5.90;;
64653;SDS011;51065;48.884;12.598;2023-08-24T05:25:58;9.30;;;4.95;;
64653;SDS011;51065;48.884;12.598;2023-08-24T05:28:25;9.25;;;4.35;;
64653;SDS011;51065;48.884;12.598;2023-08-24T05:30:52;8.07;;;4.95;;
64653;SDS011;51065;48.884;12.598;2023-08-24T05:33:18;8.48;;;4.85;;
64653;SDS011;51065;48.884;12.598;2023-08-24T05:35:45;8.38;;;4.32;;
64653;SDS011;51065;48.884;12.598;2023-08-24T05:38:10;9.55;;;4.80;;
64653;SDS011;51065;48.884;12.598;2023-08-24T05:40:37;8.00;;;4.38;;
64653;SDS011;51065;48.884;12.598;2023-08-24T05:43:04;8.18;;;4.78;;
64653;SDS011;51065;48.884;12.598;2023-08-24T05:45:29;8.50;;;4.55;;
64653;SDS011;51065;48.884;12.598;2023-08-24T05:47:55;8.55;;;4.20;;
64653;SDS011;51065;48.884;12.598;2023-08-24T05:50:21;7.32;;;4.40;;
64653;SDS011;51065;48.884;12.598;2023-08-24T05:52:46;8.23;;;3.90;;
64653;SDS011;51065;48.884;12.598;2023-08-24T05:55:12;8.52;;;4.18;;
64653;SDS011;51065;48.884;12.598;2023-08-24T05:57:37;8.98;;;4.57;;
64653;SDS011;51065;48.884;12.598;2023-08-24T06:00:03;10.15;;;4.80;;
64653;SDS011;51065;48.884;12.598;2023-08-24T06:02:34;10.48;;;5.10;;
64653;SDS011;51065;48.884;12.598;2023-08-24T06:05:00;8.70;;;4.90;;
64653;SDS011;51065;48.884;12.598;2023-08-24T06:07:26;7.50;;;4.63;;
64653;SDS011;51065;48.884;12.598;2023-08-24T06:09:52;8.48;;;4.82;;
64653;SDS011;51065;48.884;12.598;2023-08-24T06:12:18;10.80;;;4.75;;
64653;SDS011;51065;48.884;12.598;2023-08-24T06:14:43;11.82;;;5.00;;
64653;SDS011;51065;48.884;12.598;2023-08-24T06:17:09;11.68;;;5.07;;
64653;SDS011;51065;48.884;12.598;2023-08-24T06:19:34;8.10;;;5.03;;
64653;SDS011;51065;48.884;12.598;2023-08-24T06:22:00;11.43;;;5.10;;
64653;SDS011;51065;48.884;12.598;2023-08-24T06:24:25;9.95;;;4.80;;
64653;SDS011;51065;48.884;12.598;2023-08-24T06:26:51;9.25;;;5.15;;
64653;SDS011;51065;48.884;12.598;2023-08-24T06:29:16;10.38;;;5.15;;
64653;SDS011;51065;48.884;12.598;2023-08-24T06:31:42;9.05;;;5.13;;
64653;SDS011;51065;48.884;12.598;2023-08-24T06:34:07;10.02;;;5.22;;
64653;SDS011;51065;48.884;12.598;2023-08-24T06:36:33;7.38;;;4.72;;
64653;SDS011;51065;48.884;12.598;2023-08-24T06:38:59;8.75;;;4.78;;
64653;SDS011;51065;48.884;12.598;2023-08-24T06:41:25;10.32;;;5.00;;
64653;SDS011;51065;48.884;12.598;2023-08-24T06:43:51;11.10;;;4.97;;
64653;SDS011;51065;48.884;12.598;2023-08-24T06:46:18;9.65;;;4.75;;
64653;SDS011;51065;48.884;12.598;2023-08-24T06:48:44;8.95;;;4.32;;
64653;SDS011;51065;48.884;12.598;2023-08-24T06:51:10;6.63;;;4.20;;
64653;SDS011;51065;48.884;12.598;2023-08-24T06:53:36;6.97;;;4.53;;
64653;SDS011;51065;48.884;12.598;2023-08-24T06:56:02;10.77;;;4.30;;
64653;SDS011;51065;48.884;12.598;2023-08-24T06:58:28;10.25;;;4.25;;
64653;SDS011;51065;48.884;12.598;2023-08-24T07:00:54;8.80;;;4.57;;
64653;SDS011;51065;48.884;12.598;2023-08-24T07:03:20;8.45;;;4.05;;
64653;SDS011;51065;48.884;12.598;2023-08-24T07:05:46;6.38;;;3.63;;
64653;SDS011;51065;48.884;12.598;2023-08-24T07:08:12;9.48;;;3.85;;
64653;SDS011;51065;48.884;12.598;2023-08-24T07:10:38;10.48;;;4.25;;
64653;SDS011;51065;48.884;12.598;2023-08-24T07:13:05;7.05;;;3.92;;
64653;SDS011;51065;48.884;12.598;2023-08-24T07:15:32;8.75;;;4.35;;
64653;SDS011;51065;48.884;12.598;2023-08-24T07:18:00;7.38;;;3.85;;
64653;SDS011;51065;48.884;12.598;2023-08-24T07:20:26;6.78;;;4.00;;
64653;SDS011;51065;48.884;12.598;2023-08-24T07:22:52;9.13;;;4.28;;
64653;SDS011;51065;48.884;12.598;2023-08-24T07:25:18;7.60;;;3.80;;
64653;SDS011;51065;48.884;12.598;2023-08-24T07:27:46;8.40;;;4.28;;
64653;SDS011;51065;48.884;12.598;2023-08-24T07:30:12;5.68;;;3.63;;
64653;SDS011;51065;48.884;12.598;2023-08-24T07:32:38;7.80;;;3.95;;
64653;SDS011;51065;48.884;12.598;2023-08-24T07:35:03;5.28;;;3.25;;
64653;SDS011;51065;48.884;12.598;2023-08-24T07:37:31;4.90;;;3.30;;
64653;SDS011;51065;48.884;12.598;2023-08-24T07:39:57;9.68;;;3.80;;
64653;SDS011;51065;48.884;12.598;2023-08-24T07:42:23;6.70;;;3.70;;
64653;SDS011;51065;48.884;12.598;2023-08-24T07:44:48;7.43;;;3.60;;
64653;SDS011;51065;48.884;12.598;2023-08-24T07:47:14;7.40;;;3.72;;
64653;SDS011;51065;48.884;12.598;2023-08-24T07:49:40;8.65;;;3.60;;
64653;SDS011;51065;48.884;12.598;2023-08-24T07:52:09;6.78;;;3.58;;
64653;SDS011;51065;48.884;12.598;2023-08-24T07:54:36;6.15;;;3.50;;
64653;SDS011;51065;48.884;12.598;2023-08-24T07:57:01;5.45;;;3.28;;
64653;SDS011;51065;48.884;12.598;2023-08-24T07:59:27;8.82;;;3.72;;
64653;SDS011;51065;48.884;12.598;2023-08-24T08:01:53;6.28;;;3.70;;
64653;SDS011;51065;48.884;12.598;2023-08-24T08:04:18;6.25;;;3.53;;
64653;SDS011;51065;48.884;12.598;2023-08-24T08:06:46;9.65;;;3.97;;
64653;SDS011;51065;48.884;12.598;2023-08-24T08:09:12;5.68;;;3.47;;
64653;SDS011;51065;48.884;12.598;2023-08-24T08:11:38;7.57;;;3.70;;
64653;SDS011;51065;48.884;12.598;2023-08-24T08:14:03;7.32;;;3.60;;
64653;SDS011;51065;48.884;12.598;2023-08-24T08:16:29;7.95;;;3.45;;
64653;SDS011;51065;48.884;12.598;2023-08-24T08:18:55;8.90;;;3.72;;
64653;SDS011;51065;48.884;12.598;2023-08-24T08:21:21;6.68;;;3.63;;
64653;SDS011;51065;48.884;12.598;2023-08-24T08:23:48;7.68;;;3.83;;
64653;SDS011;51065;48.884;12.598;2023-08-24T08:26:15;7.22;;;3.90;;
64653;SDS011;51065;48.884;12.598;2023-08-24T08:28:41;9.27;;;4.07;;
64653;SDS011;51065;48.884;12.598;2023-08-24T08:31:07;9.75;;;3.83;;
64653;SDS011;51065;48.884;12.598;2023-08-24T08:33:33;8.00;;;3.50;;
64653;SDS011;51065;48.884;12.598;2023-08-24T08:35:59;6.65;;;3.35;;
64653;SDS011;51065;48.884;12.598;2023-08-24T08:38:24;9.98;;;3.58;;
64653;SDS011;51065;48.884;12.598;2023-08-24T08:40:53;7.32;;;3.70;;
64653;SDS011;51065;48.884;12.598;2023-08-24T08:43:27;7.60;;;4.10;;
64653;SDS011;51065;48.884;12.598;2023-08-24T08:45:55;8.38;;;3.72;;
64653;SDS011;51065;48.884;12.598;2023-08-24T08:48:21;6.78;;;3.97;;
64653;SDS011;51065;48.884;12.598;2023-08-24T08:50:51;9.80;;;4.75;;
64653;SDS011;51065;48.884;12.598;2023-08-24T08:53:21;5.85;;;3.55;;
64653;SDS011;51065;48.884;12.598;2023-08-24T08:55:48;9.27;;;3.95;;
64653;SDS011;51065;48.884;12.598;2023-08-24T08:58:19;8.25;;;4.90;;
64653;SDS011;51065;48.884;12.598;2023-08-24T09:00:45;9.65;;;4.53;;
64653;SDS011;51065;48.884;12.598;2023-08-24T09:03:17;9.98;;;5.20;;
64653;SDS011;51065;48.884;12.598;2023-08-24T09:05:43;8.40;;;4.60;;
64653;SDS011;51065;48.884;12.598;2023-08-24T09:08:12;7.80;;;4.00;;
64653;SDS011;51065;48.884;12.598;2023-08-24T09:10:40;7.40;;;4.07;;
64653;SDS011;51065;48.884;12.598;2023-08-24T09:13:06;9.23;;;3.70;;
64653;SDS011;51065;48.884;12.598;2023-08-24T09:15:34;6.30;;;3.60;;
64653;SDS011;51065;48.884;12.598;2023-08-24T09:18:01;7.90;;;3.85;;
64653;SDS011;51065;48.884;12.598;2023-08-24T09:20:27;10.68;;;3.53;;
64653;SDS011;51065;48.884;12.598;2023-08-24T09:22:56;8.07;;;2.90;;
64653;SDS011;51065;48.884;12.598;2023-08-24T09:25:26;8.73;;;3.30;;
64653;SDS011;51065;48.884;12.598;2023-08-24T09:28:01;7.30;;;3.50;;
64653;SDS011;51065;48.884;12.598;2023-08-24T09:30:31;7.32;;;3.30;;
64653;SDS011;51065;48.884;12.598;2023-08-24T09:33:31;6.65;;;2.80;;
64653;SDS011;51065;48.884;12.598;2023-08-24T09:35:54;7.18;;;3.20;;
64653;SDS011;51065;48.884;12.598;2023-08-24T09:38:27;5.22;;;2.80;;
64653;SDS011;51065;48.884;12.598;2023-08-24T09:40:54;5.13;;;2.70;;
64653;SDS011;51065;48.884;12.598;2023-08-24T09:43:20;8.93;;;3.17;;
64653;SDS011;51065;48.884;12.598;2023-08-24T09:45:47;5.50;;;2.40;;
64653;SDS011;51065;48.884;12.598;2023-08-24T09:48:17;9.70;;;2.72;;
64653;SDS011;51065;48.884;12.598;2023-08-24T09:50:46;4.97;;;2.60;;
64653;SDS011;51065;48.884;12.598;2023-08-24T09:53:19;5.65;;;2.60;;
64653;SDS011;51065;48.884;12.598;2023-08-24T09:55:48;5.15;;;2.38;;
64653;SDS011;51065;48.884;12.598;2023-08-24T09:58:19;7.07;;;2.65;;
64653;SDS011;51065;48.884;12.598;2023-08-24T10:00:45;6.13;;;2.45;;
64653;SDS011;51065;48.884;12.598;2023-08-24T10:03:15;6.57;;;2.70;;
64653;SDS011;51065;48.884;12.598;2023-08-24T10:05:45;3.88;;;2.30;;
64653;SDS011;51065;48.884;12.598;2023-08-24T10:08:24;9.35;;;2.60;;
64653;SDS011;51065;48.884;12.598;2023-08-24T10:10:57;5.22;;;2.58;;
64653;SDS011;51065;48.884;12.598;2023-08-24T10:13:27;3.20;;;2.35;;
64653;SDS011;51065;48.884;12.598;2023-08-24T10:16:04;6.68;;;2.47;;
64653;SDS011;51065;48.884;12.598;2023-08-24T10:18:31;5.57;;;2.50;;
64653;SDS011;51065;48.884;12.598;2023-08-24T10:20:57;2.53;;;2.10;;
64653;SDS011;51065;48.884;12.598;2023-08-24T10:23:25;3.58;;;2.10;;
64653;SDS011;51065;48.884;12.598;2023-08-24T10:25:53;6.47;;;2.60;;
64653;SDS011;51065;48.884;12.598;2023-08-24T10:28:20;5.57;;;2.50;;
64653;SDS011;51065;48.884;12.598;2023-08-24T10:30:48;7.70;;;2.70;;
64653;SDS011;51065;48.884;12.598;2023-08-24T10:33:15;5.10;;;2.72;;
64653;SDS011;51065;48.884;12.598;2023-08-24T10:35:41;5.38;;;2.60;;
64653;SDS011;51065;48.884;12.598;2023-08-24T10:38:08;4.60;;;2.45;;
64653;SDS011;51065;48.884;12.598;2023-08-24T10:40:47;7.20;;;2.47;;
64653;SDS011;51065;48.884;12.598;2023-08-24T10:43:13;4.45;;;2.60;;
64653;SDS011;51065;48.884;12.598;2023-08-24T10:45:57;4.82;;;2.40;;
64653;SDS011;51065;48.884;12.598;2023-08-24T10:48:28;6.55;;;2.53;;
64653;SDS011;51065;48.884;12.598;2023-08-24T10:53:44;3.50;;;2.10;;
64653;SDS011;51065;48.884;12.598;2023-08-24T10:56:12;4.88;;;2.58;;
64653;SDS011;51065;48.884;12.598;2023-08-24T10:58:42;4.50;;;2.10;;
64653;SDS011;51065;48.884;12.598;2023-08-24T11:03:41;4.53;;;2.50;;
64653;SDS011;51065;48.884;12.598;2023-08-24T11:06:23;5.30;;;2.53;;
64653;SDS011;51065;48.884;12.598;2023-08-24T11:09:05;4.85;;;2.35;;
64653;SDS011;51065;48.884;12.598;2023-08-24T11:14:15;6.15;;;2.83;;
64653;SDS011;51065;48.884;12.598;2023-08-24T11:16:47;6.78;;;2.63;;
64653;SDS011;51065;48.884;12.598;2023-08-24T11:19:14;7.93;;;2.92;;
64653;SDS011;51065;48.884;12.598;2023-08-24T11:21:41;7.03;;;2.65;;
64653;SDS011;51065;48.884;12.598;2023-08-24T11:24:14;6.70;;;2.83;;
64653;SDS011;51065;48.884;12.598;2023-08-24T11:26:44;4.65;;;2.60;;
64653;SDS011;51065;48.884;12.598;2023-08-24T11:29:11;9.65;;;2.60;;
64653;SDS011;51065;48.884;12.598;2023-08-24T11:31:38;4.38;;;2.33;;
64653;SDS011;51065;48.884;12.598;2023-08-24T11:34:05;4.88;;;2.20;;
64653;SDS011;51065;48.884;12.598;2023-08-24T11:36:38;5.72;;;2.70;;
64653;SDS011;51065;48.884;12.598;2023-08-24T11:39:13;5.60;;;2.83;;
64653;SDS011;51065;48.884;12.598;2023-08-24T11:42:03;9.23;;;2.60;;
64653;SDS011;51065;48.884;12.598;2023-08-24T11:44:29;5.20;;;2.58;;
64653;SDS011;51065;48.884;12.598;2023-08-24T11:47:11;4.75;;;2.80;;
64653;SDS011;51065;48.884;12.598;2023-08-24T11:49:37;5.07;;;2.47;;
64653;SDS011;51065;48.884;12.598;2023-08-24T11:52:02;5.18;;;2.35;;
64653;SDS011;51065;48.884;12.598;2023-08-24T11:54:28;5.20;;;2.13;;
64653;SDS011;51065;48.884;12.598;2023-08-24T11:56:57;4.33;;;2.50;;
64653;SDS011;51065;48.884;12.598;2023-08-24T11:59:22;6.05;;;2.47;;
64653;SDS011;51065;48.884;12.598;2023-08-24T12:01:48;6.28;;;2.25;;
64653;SDS011;51065;48.884;12.598;2023-08-24T12:04:14;7.28;;;2.72;;
64653;SDS011;51065;48.884;12.598;2023-08-24T12:06:40;5.47;;;2.53;;
64653;SDS011;51065;48.884;12.598;2023-08-24T12:09:05;4.13;;;2.40;;
64653;SDS011;51065;48.884;12.598;2023-08-24T12:11:35;2.53;;;2.10;;
64653;SDS011;51065;48.884;12.598;2023-08-24T12:14:04;5.32;;;2.65;;
64653;SDS011;51065;48.884;12.598;2023-08-24T12:16:32;4.97;;;2.20;;
64653;SDS011;51065;48.884;12.598;2023-08-24T12:18:58;5.82;;;2.40;;
64653;SDS011;51065;48.884;12.598;2023-08-24T12:21:27;5.22;;;2.42;;
64653;SDS011;51065;48.884;12.598;2023-08-24T12:23:55;4.57;;;2.40;;
64653;SDS011;51065;48.884;12.598;2023-08-24T12:26:25;4.45;;;2.40;;
64653;SDS011;51065;48.884;12.598;2023-08-24T12:28:51;4.15;;;2.50;;
64653;SDS011;51065;48.884;12.598;2023-08-24T12:31:18;6.63;;;2.28;;
64653;SDS011;51065;48.884;12.598;2023-08-24T12:33:44;4.15;;;2.55;;
64653;SDS011;51065;48.884;12.598;2023-08-24T12:36:10;5.50;;;2.53;;
64653;SDS011;51065;48.884;12.598;2023-08-24T12:38:36;4.13;;;2.50;;
64653;SDS011;51065;48.884;12.598;2023-08-24T12:41:02;2.53;;;2.15;;
64653;SDS011;51065;48.884;12.598;2023-08-24T12:43:27;5.95;;;2.20;;
64653;SDS011;51065;48.884;12.598;2023-08-24T12:45:53;8.90;;;2.85;;
64653;SDS011;51065;48.884;12.598;2023-08-24T12:48:19;5.57;;;2.50;;
64653;SDS011;51065;48.884;12.598;2023-08-24T12:50:44;5.95;;;2.63;;
64653;SDS011;51065;48.884;12.598;2023-08-24T12:53:10;4.78;;;2.45;;
64653;SDS011;51065;48.884;12.598;2023-08-24T12:55:38;4.00;;;2.50;;
64653;SDS011;51065;48.884;12.598;2023-08-24T12:58:04;8.10;;;2.80;;
64653;SDS011;51065;48.884;12.598;2023-08-24T13:00:30;3.92;;;2.55;;
64653;SDS011;51065;48.884;12.598;2023-08-24T13:02:56;5.88;;;2.38;;
64653;SDS011;51065;48.884;12.598;2023-08-24T13:05:22;5.07;;;2.53;;
64653;SDS011;51065;48.884;12.598;2023-08-24T13:07:47;5.63;;;2.70;;
64653;SDS011;51065;48.884;12.598;2023-08-24T13:10:13;6.03;;;2.72;;
64653;SDS011;51065;48.884;12.598;2023-08-24T13:12:39;6.28;;;2.58;;
64653;SDS011;51065;48.884;12.598;2023-08-24T13:15:05;4.75;;;2.65;;
64653;SDS011;51065;48.884;12.598;2023-08-24T13:17:31;5.18;;;2.42;;
64653;SDS011;51065;48.884;12.598;2023-08-24T13:19:57;3.47;;;2.50;;
64653;SDS011;51065;48.884;12.598;2023-08-24T13:22:23;8.20;;;2.80;;
64653;SDS011;51065;48.884;12.598;2023-08-24T13:24:48;7.47;;;2.65;;
64653;SDS011;51065;48.884;12.598;2023-08-24T13:27:14;10.02;;;2.80;;
64653;SDS011;51065;48.884;12.598;2023-08-24T13:29:40;6.03;;;2.60;;
64653;SDS011;51065;48.884;12.598;2023-08-24T13:32:06;5.13;;;2.58;;
64653;SDS011;51065;48.884;12.598;2023-08-24T13:34:32;8.70;;;2.70;;
64653;SDS011;51065;48.884;12.598;2023-08-24T13:36:58;4.30;;;2.38;;
64653;SDS011;51065;48.884;12.598;2023-08-24T13:39:26;5.03;;;2.97;;
64653;SDS011;51065;48.884;12.598;2023-08-24T13:44:19;6.32;;;2.38;;
64653;SDS011;51065;48.884;12.598;2023-08-24T13:46:44;7.32;;;2.90;;
64653;SDS011;51065;48.884;12.598;2023-08-24T13:49:11;5.75;;;2.70;;
64653;SDS011;51065;48.884;12.598;2023-08-24T13:51:37;6.47;;;2.83;;
64653;SDS011;51065;48.884;12.598;2023-08-24T13:54:03;4.63;;;2.55;;
64653;SDS011;51065;48.884;12.598;2023-08-24T13:56:36;6.07;;;2.70;;
64653;SDS011;51065;48.884;12.598;2023-08-24T13:59:03;8.07;;;3.13;;
64653;SDS011;51065;48.884;12.598;2023-08-24T14:01:28;4.03;;;2.33;;
64653;SDS011;51065;48.884;12.598;2023-08-24T14:03:54;7.65;;;2.50;;
64653;SDS011;51065;48.884;12.598;2023-08-24T14:06:20;7.60;;;2.72;;
64653;SDS011;51065;48.884;12.598;2023-08-24T14:08:46;5.43;;;2.60;;
64653;SDS011;51065;48.884;12.598;2023-08-24T14:11:11;6.18;;;2.30;;
64653;SDS011;51065;48.884;12.598;2023-08-24T14:13:37;5.45;;;2.25;;
64653;SDS011;51065;48.884;12.598;2023-08-24T14:16:02;5.00;;;2.47;;
64653;SDS011;51065;48.884;12.598;2023-08-24T14:18:29;7.40;;;2.53;;
64653;SDS011;51065;48.884;12.598;2023-08-24T14:20:55;5.10;;;2.45;;
64653;SDS011;51065;48.884;12.598;2023-08-24T14:23:24;3.00;;;2.50;;
64653;SDS011;51065;48.884;12.598;2023-08-24T14:25:49;6.82;;;2.40;;
64653;SDS011;51065;48.884;12.598;2023-08-24T14:28:19;6.45;;;2.65;;
64653;SDS011;51065;48.884;12.598;2023-08-24T14:30:46;8.05;;;2.72;;
64653;SDS011;51065;48.884;12.598;2023-08-24T14:33:12;4.15;;;2.30;;
64653;SDS011;51065;48.884;12.598;2023-08-24T14:35:38;4.15;;;2.70;;
64653;SDS011;51065;48.884;12.598;2023-08-24T14:38:03;4.97;;;2.60;;
64653;SDS011;51065;48.884;12.598;2023-08-24T14:40:29;7.70;;;2.47;;
64653;SDS011;51065;48.884;12.598;2023-08-24T14:42:54;5.53;;;2.50;;